Time;durP1;ratioP1;P1;durP2;ratioP2;P2;SDS_P1;SDS_P2;PMS_P1;PMS_P2;Temp;Humidity;BMP_temperature;BMP_pressure;BME280_temperature;BME280_humidity;BME280_pressure;Samples;Min_cycle;Max_cycle;Signal;HPM_P1;HPM_P2
2021/01/15 00:02:05;;;;;;;4.93;2.50;;;;;;;-1.78;72.72;99110.53;5125116;27;20050;-79
2021/01/15 00:04:31;;;;;;;3.83;2.77;;;;;;;-1.83;72.69;99094.00;5117137;27;20119;-79
2021/01/15 00:07:00;;;;;;;3.97;2.73;;;;;;;-1.83;73.37;99102.00;5112327;28;20051;-78
2021/01/15 00:09:26;;;;;;;5.10;2.93;;;;;;;-1.86;72.98;99097.75;5125060;27;20054;-78
2021/01/15 00:11:53;;;;;;;8.43;2.70;;;;;;;-1.80;72.85;99105.31;5114243;28;20055;-79
2021/01/15 00:14:20;;;;;;;4.47;2.77;;;;;;;-1.74;72.43;99117.34;5113796;27;20479;-78
2021/01/15 00:16:51;;;;;;;7.40;2.90;;;;;;;-1.79;73.49;99115.00;5113632;28;20058;-79
2021/01/15 00:19:17;;;;;;;4.13;2.87;;;;;;;-1.85;72.27;99098.59;5114109;28;20093;-78
2021/01/15 00:21:48;;;;;;;3.77;3.17;;;;;;;-1.95;72.67;99087.72;5093058;28;20050;-79
2021/01/15 00:24:16;;;;;;;5.10;3.27;;;;;;;-1.79;72.83;99116.84;5124633;27;20134;-78
2021/01/15 00:26:43;;;;;;;3.87;2.90;;;;;;;-1.86;72.74;99112.88;5121358;27;20066;-79
2021/01/15 00:29:10;;;;;;;4.70;2.70;;;;;;;-1.87;72.14;99114.69;5116452;28;20043;-79
2021/01/15 00:31:39;;;;;;;3.30;2.33;;;;;;;-2.01;72.57;99096.16;5119487;28;20093;-79
2021/01/15 00:34:07;;;;;;;3.40;2.50;;;;;;;-1.81;72.58;99129.41;5111729;28;20408;-78
2021/01/15 00:36:33;;;;;;;5.63;3.13;;;;;;;-1.92;72.76;99108.00;5110723;28;20044;-79
2021/01/15 00:39:00;;;;;;;8.83;3.10;;;;;;;-1.86;72.35;99129.72;5112359;28;20040;-79
2021/01/15 00:41:27;;;;;;;6.27;2.60;;;;;;;-1.87;71.97;99116.50;5106361;28;20117;-79
2021/01/15 00:43:53;;;;;;;8.27;3.13;;;;;;;-1.98;72.53;99126.09;5112164;28;20552;-78
2021/01/15 00:46:31;;;;;;;4.60;2.93;;;;;;;-1.89;72.57;99131.75;5111060;28;20058;-79
2021/01/15 00:48:59;;;;;;;3.60;2.77;;;;;;;-1.91;72.38;99128.31;5116390;28;20055;-79
2021/01/15 00:51:25;;;;;;;6.93;3.53;;;;;;;-1.98;72.79;99128.75;5113908;28;20052;-79
2021/01/15 00:53:52;;;;;;;3.23;2.70;;;;;;;-2.10;72.61;99116.28;5117741;28;20054;-79
2021/01/15 00:56:20;;;;;;;3.17;2.77;;;;;;;-1.99;72.48;99131.53;5117250;28;20407;-78
2021/01/15 00:58:47;;;;;;;6.00;2.83;;;;;;;-1.96;72.78;99136.63;5117879;28;20055;-79
2021/01/15 01:01:14;;;;;;;6.67;2.63;;;;;;;-1.95;72.78;99138.34;5117631;28;20043;-78
2021/01/15 01:03:41;;;;;;;3.53;2.80;;;;;;;-2.06;73.44;99128.44;5117631;28;20047;-79
2021/01/15 01:06:12;;;;;;;3.87;2.70;;;;;;;-2.16;73.37;99130.88;5117574;28;20058;-79
2021/01/15 01:08:39;;;;;;;4.03;2.57;;;;;;;-2.06;72.31;99140.91;5117748;28;20179;-79
2021/01/15 01:11:10;;;;;;;4.33;2.50;;;;;;;-2.20;72.76;99124.06;5126237;27;20047;-78
2021/01/15 01:13:38;;;;;;;3.80;2.47;;;;;;;-2.11;73.68;99148.34;5117464;28;20070;-78
2021/01/15 01:16:05;;;;;;;8.40;2.93;;;;;;;-2.37;73.94;99111.88;5117100;28;20054;-79
2021/01/15 01:18:33;;;;;;;5.90;2.83;;;;;;;-2.35;73.84;99133.09;5103948;28;20338;-79
2021/01/15 01:20:59;;;;;;;7.10;3.33;;;;;;;-2.39;74.54;99127.13;5096398;28;20487;-78
2021/01/15 01:23:27;;;;;;;5.13;2.87;;;;;;;-2.39;74.80;99150.25;5115140;28;20067;-78
2021/01/15 01:25:53;;;;;;;3.80;2.67;;;;;;;-2.38;75.11;99144.81;5130938;27;20055;-78
2021/01/15 01:28:20;;;;;;;5.00;2.73;;;;;;;-2.42;75.79;99145.13;5137495;27;20059;-78
2021/01/15 01:30:47;;;;;;;3.53;2.77;;;;;;;-2.46;75.88;99143.63;5138171;27;20116;-78
2021/01/15 01:33:15;;;;;;;5.80;3.03;;;;;;;-2.48;77.36;99157.03;5096616;28;20056;-78
2021/01/15 01:35:41;;;;;;;4.07;3.17;;;;;;;-2.66;76.23;99135.16;5099042;28;20063;-78
2021/01/15 01:38:07;;;;;;;3.10;2.50;;;;;;;-2.67;76.21;99133.44;5116906;28;20483;-78
2021/01/15 01:40:35;;;;;;;3.13;2.50;;;;;;;-2.71;76.49;99139.91;5116444;28;20047;-78
2021/01/15 01:43:02;;;;;;;4.70;2.53;;;;;;;-2.74;75.60;99121.47;5116376;28;20048;-78
2021/01/15 01:45:28;;;;;;;3.53;2.57;;;;;;;-2.75;75.98;99120.63;5115611;28;20054;-78
2021/01/15 01:47:56;;;;;;;6.77;2.53;;;;;;;-2.61;73.84;99125.03;5116443;28;20054;-78
2021/01/15 01:50:24;;;;;;;3.60;2.20;;;;;;;-2.60;74.04;99150.72;5116417;28;20051;-78
2021/01/15 01:52:50;;;;;;;6.37;2.33;;;;;;;-2.55;74.24;99153.91;5116844;28;20092;-78
2021/01/15 01:55:19;;;;;;;3.07;2.30;;;;;;;-2.60;74.48;99165.84;5116594;28;20380;-78
2021/01/15 01:57:46;;;;;;;3.90;2.30;;;;;;;-2.58;74.04;99175.41;5125516;27;20047;-78
2021/01/15 02:00:14;;;;;;;4.37;2.60;;;;;;;-2.76;74.18;99160.66;5117221;27;20133;-78
2021/01/15 02:02:43;;;;;;;4.90;2.37;;;;;;;-2.58;73.51;99180.72;5115761;28;20116;-78
2021/01/15 02:05:10;;;;;;;6.47;2.17;;;;;;;-2.64;71.42;99141.22;5116039;28;20051;-78
2021/01/15 02:07:37;;;;;;;3.67;2.53;;;;;;;-2.43;71.97;99172.69;5128611;27;20050;-78
2021/01/15 02:10:10;;;;;;;3.00;2.43;;;;;;;-2.69;72.21;99164.63;5137141;27;20047;-78
2021/01/15 02:12:48;;;;;;;3.33;2.83;;;;;;;-2.53;72.85;99178.63;5116997;27;20051;-78
2021/01/15 02:15:20;;;;;;;5.03;2.57;;;;;;;-2.58;71.62;99159.44;5129262;27;20051;-78
2021/01/15 02:17:54;;;;;;;2.70;2.07;;;;;;;-2.46;71.77;99175.56;5115966;28;20059;-78
2021/01/15 02:20:47;;;;;;;2.90;2.60;;;;;;;-2.59;72.38;99173.72;5109040;27;20044;-79
2021/01/15 02:23:19;;;;;;;4.17;2.57;;;;;;;-2.70;72.62;99174.41;5128916;27;20070;-79
2021/01/15 02:26:09;;;;;;;2.50;2.20;;;;;;;-2.76;72.13;99165.97;5129540;27;20047;-79
2021/01/15 02:29:02;;;;;;;;;;;;;;;-2.56;72.08;99193.94;5116423;28;20047;-79
2021/01/15 02:31:56;;;;;;;4.77;2.17;;;;;;;-2.59;72.35;99191.47;5116698;27;19920;-79
2021/01/15 02:34:31;;;;;;;4.73;2.50;;;;;;;-2.61;72.75;99194.25;5115767;28;20377;-78
2021/01/15 02:37:04;;;;;;;3.90;2.83;;;;;;;-2.65;72.92;99200.72;5116693;28;20066;-79
2021/01/15 02:39:44;;;;;;;2.50;2.23;;;;;;;-2.69;72.80;99192.09;5115731;28;20579;-78
2021/01/15 02:42:12;;;;;;;8.80;2.45;;;;;;;-2.71;71.83;99182.50;5117575;27;20047;-78
2021/01/15 02:44:42;;;;;;;4.37;2.47;;;;;;;-2.85;72.60;99178.91;5121426;27;20047;-79
2021/01/15 02:47:16;;;;;;;3.10;2.13;;;;;;;-2.85;72.92;99194.03;5100769;27;20044;-79
2021/01/15 02:49:43;;;;;;;3.43;2.20;;;;;;;-3.06;73.04;99175.84;5095103;28;20055;-79
2021/01/15 02:52:10;;;;;;;2.37;2.17;;;;;;;-2.95;72.96;99188.47;5095058;28;20052;-79
2021/01/15 02:54:37;;;;;;;2.40;2.07;;;;;;;-3.00;73.96;99197.69;5103506;27;20676;-78
2021/01/15 02:57:04;;;;;;;3.00;2.23;;;;;;;-3.03;74.55;99204.94;5135760;27;20046;-78
2021/01/15 02:59:30;;;;;;;3.97;2.73;;;;;;;-3.14;74.21;99179.97;5124955;27;20044;-78
2021/01/15 03:02:05;;;;;;;2.77;2.43;;;;;;;-3.26;75.20;99185.09;5115173;28;20047;-78
2021/01/15 03:04:41;;;;;;;4.60;2.63;;;;;;;-3.16;74.62;99195.13;5115054;28;20127;-78
2021/01/15 03:07:12;;;;;;;2.83;2.13;;;;;;;-3.25;75.93;99200.09;5118973;27;20533;-78
2021/01/15 03:09:44;;;;;;;2.73;2.43;;;;;;;-3.17;75.91;99212.06;5135473;27;20050;-78
2021/01/15 03:12:11;;;;;;;3.40;2.70;;;;;;;-3.35;76.22;99217.56;5118666;27;20043;-78
2021/01/15 03:14:39;;;;;;;3.60;2.17;;;;;;;-3.31;75.46;99221.75;5114658;28;20047;-77
2021/01/15 03:17:08;;;;;;;5.10;2.63;;;;;;;-3.43;75.44;99206.56;5115072;28;20048;-78
2021/01/15 03:19:34;;;;;;;3.37;2.60;;;;;;;-3.45;75.94;99195.16;5114959;28;20059;-78
2021/01/15 03:22:10;;;;;;;5.00;2.70;;;;;;;-3.39;75.80;99218.72;5114706;28;20737;-78
2021/01/15 03:24:36;;;;;;;4.17;2.60;;;;;;;-3.32;75.09;99222.69;5094265;28;20108;-78
2021/01/15 03:27:04;;;;;;;8.10;2.80;;;;;;;-3.27;74.94;99219.75;5094659;28;20056;-78
2021/01/15 03:29:31;;;;;;;3.93;2.90;;;;;;;-3.34;74.73;99192.72;5111490;27;20047;-78
2021/01/15 03:31:57;;;;;;;2.87;2.30;;;;;;;-3.39;74.81;99208.94;5135448;27;20047;-78
2021/01/15 03:34:23;;;;;;;2.20;2.00;;;;;;;-3.27;75.02;99230.38;5118442;27;20092;-78
2021/01/15 03:36:50;;;;;;;2.60;2.40;;;;;;;-3.30;75.25;99220.78;5135309;27;20043;-78
2021/01/15 03:39:17;;;;;;;5.40;2.70;;;;;;;-3.35;75.50;99230.03;5115497;27;20051;-78
2021/01/15 03:41:43;;;;;;;3.40;2.70;;;;;;;-3.45;75.68;99222.59;5113785;28;20055;-78
2021/01/15 03:44:10;;;;;;;3.33;2.83;;;;;;;-3.29;75.32;99242.94;5114284;28;20051;-78
2021/01/15 03:46:36;;;;;;;5.03;2.97;;;;;;;-3.51;75.87;99235.41;5093718;28;20052;-78
2021/01/15 03:49:02;;;;;;;3.57;3.07;;;;;;;-3.33;75.23;99254.69;5095965;27;20056;-78
2021/01/15 03:51:29;;;;;;;4.03;2.40;;;;;;;-3.43;75.39;99262.41;5114088;28;20096;-78
2021/01/15 03:53:55;;;;;;;4.07;2.83;;;;;;;-3.42;75.59;99259.66;5116603;27;20479;-78
2021/01/15 03:56:22;;;;;;;5.23;2.77;;;;;;;-3.66;75.87;99224.75;5134631;27;20051;-78
2021/01/15 03:58:48;;;;;;;3.30;2.47;;;;;;;-3.66;75.66;99224.75;5132543;27;20047;-78
2021/01/15 04:01:15;;;;;;;4.83;2.63;;;;;;;-3.49;76.08;99263.63;5118931;27;20043;-78
2021/01/15 04:03:42;;;;;;;4.63;2.60;;;;;;;-3.50;76.08;99272.53;5134128;27;20138;-78
2021/01/15 04:06:09;;;;;;;3.90;3.03;;;;;;;-3.81;76.13;99245.16;5130384;27;20051;-78
2021/01/15 04:08:35;;;;;;;6.13;2.90;;;;;;;-3.50;75.55;99269.88;5134487;27;20066;-78
2021/01/15 04:11:02;;;;;;;6.43;2.83;;;;;;;-3.64;75.28;99252.13;5122687;27;20059;-78
2021/01/15 04:13:29;;;;;;;3.87;2.70;;;;;;;-3.47;75.04;99280.31;5113271;28;20096;-78
2021/01/15 04:15:55;;;;;;;6.77;2.77;;;;;;;-3.70;75.89;99256.94;5115082;27;20050;-78
2021/01/15 04:18:22;;;;;;;4.90;2.80;;;;;;;-3.85;76.52;99250.72;5113446;28;20058;-78
2021/01/15 04:20:48;;;;;;;2.80;2.30;;;;;;;-3.82;76.71;99274.50;5118669;27;20399;-78
2021/01/15 04:23:14;;;;;;;4.90;3.30;;;;;;;-3.94;77.65;99263.63;5113484;28;20492;-78
2021/01/15 04:25:40;;;;;;;3.83;2.83;;;;;;;-4.07;77.56;99257.31;5126257;27;20046;-78
2021/01/15 04:28:06;;;;;;;4.33;2.73;;;;;;;-4.05;78.14;99279.34;5114142;28;20046;-78
2021/01/15 04:30:34;;;;;;;4.53;2.97;;;;;;;-4.30;78.21;99251.56;5113751;28;20048;-78
2021/01/15 04:33:00;;;;;;;4.10;2.83;;;;;;;-4.33;78.54;99272.97;5113897;28;20116;-78
2021/01/15 04:35:26;;;;;;;4.37;2.53;;;;;;;-4.31;78.81;99273.72;5113779;28;20044;-78
2021/01/15 04:37:52;;;;;;;4.73;2.80;;;;;;;-4.52;78.77;99251.91;5113711;28;20044;-78
2021/01/15 04:40:19;;;;;;;5.27;3.20;;;;;;;-4.34;78.06;99268.59;5113710;28;20048;-78
2021/01/15 04:42:47;;;;;;;4.40;2.97;;;;;;;-4.37;78.35;99262.63;5101878;28;20051;-78
2021/01/15 04:45:15;;;;;;;3.60;3.10;;;;;;;-4.38;79.05;99266.22;5091998;28;20047;-78
2021/01/15 04:47:44;;;;;;;4.77;3.13;;;;;;;-4.45;78.93;99257.75;5093316;28;20052;-78
2021/01/15 04:50:15;;;;;;;6.50;3.90;;;;;;;-4.52;79.30;99265.19;5127136;28;20051;-77
2021/01/15 04:52:47;;;;;;;6.97;4.47;;;;;;;-4.67;79.95;99255.44;5132179;28;20634;-78
2021/01/15 04:55:22;;;;;;;6.50;4.07;;;;;;;-4.69;79.28;99263.50;5113225;28;20047;-78
2021/01/15 04:57:50;;;;;;;6.83;3.53;;;;;;;-4.49;79.81;99304.81;5115730;28;20058;-78
2021/01/15 05:00:19;;;;;;;5.47;3.23;;;;;;;-4.61;79.54;99289.59;5134135;28;20054;-77
2021/01/15 05:02:47;;;;;;;6.03;3.43;;;;;;;-4.67;79.10;99277.53;5120979;28;20448;-78
2021/01/15 05:05:19;;;;;;;3.70;2.87;;;;;;;-4.74;79.11;99270.88;5113199;28;20059;-78
2021/01/15 05:08:08;;;;;;;6.07;3.50;;;;;;;-4.86;78.75;99277.72;5113525;28;20134;-78
2021/01/15 05:10:38;;;;;;;7.13;3.00;;;;;;;-4.80;79.44;99290.63;5128988;28;20563;-78
2021/01/15 05:13:08;;;;;;;5.53;3.13;;;;;;;-4.93;79.24;99271.03;5092986;28;20063;-78
2021/01/15 05:15:36;;;;;;;5.38;3.42;;;;;;;-4.82;79.90;99305.78;5102487;28;20079;-78
2021/01/15 05:18:05;;;;;;;5.03;3.00;;;;;;;-4.80;79.84;99305.69;5133206;28;20506;-78
2021/01/15 05:20:33;;;;;;;6.13;3.47;;;;;;;-4.83;79.97;99309.38;5122940;28;20054;-78
2021/01/15 05:23:01;;;;;;;6.20;3.77;;;;;;;-4.84;80.49;99323.56;5126227;28;20043;-79
2021/01/15 05:25:29;;;;;;;5.47;3.13;;;;;;;-4.94;80.22;99310.88;5133124;28;20070;-78
2021/01/15 05:27:55;;;;;;;5.50;3.60;;;;;;;-4.94;79.88;99317.03;5109913;28;20052;-79
2021/01/15 05:30:24;;;;;;;10.23;3.23;;;;;;;-5.02;80.60;99322.75;5092644;28;20056;-79
2021/01/15 05:32:51;;;;;;;5.10;2.97;;;;;;;-5.09;80.71;99313.41;5095936;28;20139;-79
2021/01/15 05:35:19;;;;;;;3.73;3.10;;;;;;;-5.03;81.03;99338.75;5092365;28;20059;-78
2021/01/15 05:37:56;;;;;;;6.87;3.13;;;;;;;-5.11;80.86;99325.06;5099359;27;20122;-78
2021/01/15 05:40:41;;;;;;;4.07;3.20;;;;;;;-5.18;81.84;99325.38;5137453;27;20091;-79
2021/01/15 05:43:08;;;;;;;6.13;3.60;;;;;;;-5.00;81.56;99352.72;5137186;27;20501;-78
2021/01/15 05:45:34;;;;;;;4.30;3.40;;;;;;;-4.99;81.24;99358.88;5136218;27;20059;-78
2021/01/15 05:48:00;;;;;;;5.20;3.20;;;;;;;-5.11;80.90;99347.13;5117117;27;20051;-78
2021/01/15 05:50:41;;;;;;;6.13;3.13;;;;;;;-5.07;81.02;99361.94;5096460;28;20052;-78
2021/01/15 05:53:07;;;;;;;6.67;3.30;;;;;;;-5.13;80.84;99383.47;5096436;28;20051;-78
2021/01/15 05:55:34;;;;;;;6.10;4.10;;;;;;;-5.37;82.12;99359.94;5135397;27;20054;-79
2021/01/15 05:58:10;;;;;;;4.47;3.57;;;;;;;-5.27;82.29;99386.84;5137018;27;20043;-78
2021/01/15 06:00:40;;;;;;;6.33;3.40;;;;;;;-5.31;82.39;99368.50;5133069;27;20047;-78
2021/01/15 06:03:09;;;;;;;;;;;;;;;-5.19;80.79;99389.94;5137858;27;20051;-78
2021/01/15 06:05:38;;;;;;;9.40;4.10;;;;;;;-5.41;81.31;99358.38;5116999;27;20363;-78
2021/01/15 06:08:06;;;;;;;5.65;3.50;;;;;;;-5.31;81.41;99384.41;5096242;28;20052;-78
2021/01/15 06:10:45;;;;;;;5.70;3.70;;;;;;;-5.44;81.45;99363.00;5101089;27;20407;-78
2021/01/15 06:13:12;;;;;;;;;;;;;;;-5.25;81.33;99397.38;5116774;27;20418;-78
2021/01/15 06:15:45;;;;;;;4.67;3.63;;;;;;;-5.47;81.90;99381.69;5115966;28;19965;-78
2021/01/15 06:18:16;;;;;;;6.00;3.93;;;;;;;-5.44;82.71;99394.78;5115695;28;20055;-79
2021/01/15 06:20:44;;;;;;;7.73;4.27;;;;;;;-5.50;81.71;99374.75;5115992;28;20052;-78
2021/01/15 06:23:14;;;;;;;12.67;5.07;;;;;;;-5.20;82.28;99424.47;5129399;27;20089;-78
2021/01/15 06:25:57;;;;;;;11.73;4.53;;;;;;;-5.44;82.75;99394.78;5136484;27;20085;-78
2021/01/15 06:28:33;;;;;;;14.00;5.07;;;;;;;-5.19;83.70;99407.63;5136072;27;20058;-79
2021/01/15 06:31:03;;;;;;;7.30;4.37;;;;;;;-5.31;82.71;99395.00;5136657;27;20127;-78
2021/01/15 06:33:29;;;;;;;10.95;5.82;;;;;;;-5.25;83.16;99405.31;5128103;27;20086;-78
2021/01/15 06:35:56;;;;;;;11.40;4.63;;;;;;;-5.28;83.13;99403.66;5115804;27;20051;-78
2021/01/15 06:38:29;;;;;;;11.00;4.87;;;;;;;-5.28;82.12;99403.66;5136183;27;20059;-78
2021/01/15 06:40:56;;;;;;;9.40;6.07;;;;;;;-5.26;82.68;99407.09;5136492;27;20051;-78
2021/01/15 06:43:25;;;;;;;10.63;5.10;;;;;;;-5.06;82.86;99437.00;5135901;27;20506;-78
2021/01/15 06:45:54;;;;;;;14.65;8.20;;;;;;;-5.04;83.65;99414.78;5122140;27;20215;-79
2021/01/15 06:48:22;;;;;;;11.40;6.03;;;;;;;-4.67;83.22;99455.28;5114726;28;20058;-80
2021/01/15 06:50:51;;;;;;;10.80;5.50;;;;;;;-4.86;83.12;99422.72;5117172;27;20048;-80
2021/01/15 06:53:20;;;;;;;10.70;6.23;;;;;;;-4.86;82.98;99438.66;5116845;27;20051;-78
2021/01/15 06:55:49;;;;;;;15.93;6.53;;;;;;;-4.81;83.02;99439.25;5114636;28;20055;-78
2021/01/15 06:58:23;;;;;;;10.97;6.17;;;;;;;-4.83;83.06;99441.13;5114563;28;20047;-78
2021/01/15 07:01:20;;;;;;;11.27;5.70;;;;;;;-4.53;83.46;99473.13;5114964;28;20114;-78
2021/01/15 07:04:17;;;;;;;14.63;7.60;;;;;;;-4.63;83.07;99424.16;5109354;28;20104;-78
2021/01/15 07:07:08;;;;;;;12.13;7.20;;;;;;;-4.42;82.97;99459.28;5115224;28;20097;-78
2021/01/15 07:09:35;;;;;;;15.80;7.17;;;;;;;-4.41;82.76;99450.41;5127529;27;20047;-78
2021/01/15 07:12:22;;;;;;;12.57;6.83;;;;;;;-4.42;82.66;99467.25;5114790;28;20463;-78
2021/01/15 07:14:51;;;;;;;15.97;7.87;;;;;;;-4.48;83.01;99443.69;5114701;28;20452;-78
2021/01/15 07:17:27;;;;;;;17.20;7.32;;;;;;;-4.58;83.19;99431.84;5114660;28;20124;-78
2021/01/15 07:20:09;;;;;;;13.93;7.03;;;;;;;-4.48;82.86;99441.88;5114640;28;20534;-78
2021/01/15 07:22:37;;;;;;;11.43;6.47;;;;;;;-4.49;82.79;99455.25;5115037;28;20047;-78
2021/01/15 07:25:07;;;;;;;13.80;6.90;;;;;;;-4.33;82.75;99481.81;5116979;27;20051;-78
2021/01/15 07:27:34;;;;;;;13.53;7.50;;;;;;;-4.36;82.62;99464.25;5135203;27;20418;-78
2021/01/15 07:30:03;;;;;;;15.13;7.53;;;;;;;-4.49;82.80;99458.75;5100548;28;20500;-78
2021/01/15 07:32:31;;;;;;;14.00;7.03;;;;;;;-4.33;83.15;99465.91;5094081;28;20048;-78
2021/01/15 07:34:59;;;;;;;14.03;7.87;;;;;;;-4.44;82.87;99447.91;5093642;28;20055;-78
2021/01/15 07:37:27;;;;;;;13.70;6.70;;;;;;;-4.28;82.70;99466.50;5098861;27;20055;-78
2021/01/15 07:40:20;;;;;;;11.93;6.97;;;;;;;-4.28;82.61;99467.34;5094161;28;20089;-78
2021/01/15 07:42:57;;;;;;;17.37;8.47;;;;;;;-4.14;82.36;99486.97;5094289;28;20076;-78
2021/01/15 07:45:52;;;;;;;13.33;6.87;;;;;;;-4.16;82.44;99484.41;5093297;28;20055;-78
2021/01/15 07:48:20;;;;;;;14.87;8.00;;;;;;;-4.20;82.68;99477.56;5120110;27;20100;-78
2021/01/15 07:50:48;;;;;;;12.53;7.63;;;;;;;-4.10;82.14;99483.22;5114020;28;20056;-78
2021/01/15 07:53:19;;;;;;;12.57;6.50;;;;;;;-4.21;82.05;99467.03;5109298;28;20052;-78
2021/01/15 07:55:50;;;;;;;14.40;7.23;;;;;;;-4.20;82.43;99471.38;5105390;28;20055;-78
2021/01/15 07:58:18;;;;;;;12.63;6.67;;;;;;;-4.16;82.65;99495.03;5113654;28;20408;-79
2021/01/15 08:00:46;;;;;;;15.97;7.17;;;;;;;-4.09;82.26;99503.53;5097809;28;20052;-78
2021/01/15 08:03:13;;;;;;;13.57;6.57;;;;;;;-4.25;82.17;99478.75;5093470;28;20064;-78
2021/01/15 08:05:39;;;;;;;15.67;7.23;;;;;;;-3.99;82.46;99523.34;5109226;28;20055;-78
2021/01/15 08:08:11;;;;;;;15.20;7.03;;;;;;;-3.99;81.84;99518.03;5113728;28;20051;-78
2021/01/15 08:10:45;;;;;;;12.07;6.80;;;;;;;-4.12;82.38;99514.31;5118313;27;20055;-78
2021/01/15 08:13:20;;;;;;;15.47;8.03;;;;;;;-4.01;82.28;99525.19;5113816;28;20055;-78
2021/01/15 08:15:47;;;;;;;12.57;6.97;;;;;;;-4.02;81.73;99519.97;5112694;28;20055;-78
2021/01/15 08:18:14;;;;;;;15.53;7.93;;;;;;;-3.91;81.80;99529.06;5113651;28;20059;-78
2021/01/15 08:20:46;;;;;;;12.47;6.70;;;;;;;-3.96;81.43;99525.81;5119858;27;20570;-78
2021/01/15 08:23:21;;;;;;;14.83;7.70;;;;;;;-3.71;80.96;99553.69;5133725;27;20082;-78
2021/01/15 08:25:52;;;;;;;12.33;7.40;;;;;;;-3.79;81.03;99545.28;5131448;27;20050;-78
2021/01/15 08:28:19;;;;;;;16.73;7.63;;;;;;;-3.77;81.02;99543.41;5093155;28;20055;-78
2021/01/15 08:31:07;;;;;;;16.47;8.10;;;;;;;-3.78;81.13;99547.88;5092959;28;20078;-78
2021/01/15 08:33:34;;;;;;;15.30;7.63;;;;;;;-3.71;81.16;99561.66;5093120;28;20044;-78
2021/01/15 08:36:02;;;;;;;17.87;7.30;;;;;;;-3.68;81.11;99565.94;5110848;28;20043;-78
2021/01/15 08:38:33;;;;;;;12.67;7.27;;;;;;;-3.59;80.87;99571.59;5134015;28;20058;-78
2021/01/15 08:41:01;;;;;;;14.77;6.70;;;;;;;-3.59;80.57;99574.25;5134161;28;20066;-78
2021/01/15 08:43:30;;;;;;;15.60;8.03;;;;;;;-3.49;80.48;99577.28;5133763;28;20045;-78
2021/01/15 08:46:00;;;;;;;12.27;7.18;;;;;;;-3.39;79.69;99577.59;5133318;28;20047;-78
2021/01/15 08:48:31;;;;;;;16.17;6.88;;;;;;;-3.39;79.74;99569.63;5130869;28;20101;-78
2021/01/15 08:51:07;;;;;;;14.77;6.80;;;;;;;-3.23;80.17;99606.84;5113825;28;20123;-78
2021/01/15 08:53:43;;;;;;;15.43;8.30;;;;;;;-3.43;80.01;99568.97;5113543;28;20491;-78
2021/01/15 08:56:12;;;;;;;14.77;7.33;;;;;;;-3.43;80.11;99590.22;5113344;28;20051;-79
2021/01/15 08:58:49;;;;;;;13.57;7.05;;;;;;;-3.32;79.90;99605.56;5120104;28;20051;-79
2021/01/15 09:01:26;;;;;;;16.27;6.97;;;;;;;-3.45;79.78;99596.56;5134076;28;20050;-79
2021/01/15 09:03:57;;;;;;;15.27;7.53;;;;;;;-3.41;80.15;99580.34;5134087;28;20062;-79
2021/01/15 09:06:24;;;;;;;16.80;8.13;;;;;;;-3.39;80.33;99596.22;5128396;28;20488;-79
2021/01/15 09:08:54;;;;;;;22.30;9.30;;;;;;;-3.19;80.11;99613.72;5113296;28;20040;-79
2021/01/15 09:11:25;;;;;;;;;;;;;;;-3.12;80.34;99628.38;5093658;28;20450;-79
2021/01/15 09:13:53;;;;;;;15.20;7.70;;;;;;;-3.18;79.95;99626.06;5096989;28;19950;-79
2021/01/15 09:16:22;;;;;;;18.57;7.50;;;;;;;-3.07;80.09;99630.78;5096903;28;20101;-79
2021/01/15 09:18:50;;;;;;;13.77;7.87;;;;;;;-3.08;79.94;99629.06;5089770;28;20055;-79
2021/01/15 09:21:17;;;;;;;16.37;7.73;;;;;;;-3.14;79.24;99613.47;5096538;28;20131;-79
2021/01/15 09:23:43;;;;;;;16.17;8.77;;;;;;;-2.92;79.05;99616.63;5096842;28;20052;-79
2021/01/15 09:26:10;;;;;;;16.40;8.57;;;;;;;-2.99;79.01;99607.25;5095910;28;20056;-79
2021/01/15 09:28:37;;;;;;;15.97;8.23;;;;;;;-2.80;78.99;99635.47;5095895;28;20131;-80
2021/01/15 09:31:05;;;;;;;15.50;7.77;;;;;;;-2.79;78.54;99627.38;5095927;28;20097;-79
2021/01/15 09:33:31;;;;;;;14.10;8.27;;;;;;;-2.69;78.86;99636.56;5096018;28;20048;-79
2021/01/15 09:35:58;;;;;;;22.13;7.63;;;;;;;-2.67;78.77;99650.63;5096223;28;20056;-79
2021/01/15 09:38:24;;;;;;;17.70;8.00;;;;;;;-2.66;77.64;99638.19;5099341;27;20044;-79
2021/01/15 09:40:50;;;;;;;12.60;6.43;;;;;;;-2.61;77.11;99635.25;5136795;27;20111;-79
2021/01/15 09:43:19;;;;;;;13.30;6.17;;;;;;;-2.64;76.85;99630.97;5136920;27;20050;-79
2021/01/15 09:45:46;;;;;;;13.10;7.50;;;;;;;-2.50;76.38;99651.44;5115593;27;20060;-79
2021/01/15 09:48:14;;;;;;;16.17;6.80;;;;;;;-2.30;76.32;99652.97;5113653;28;20043;-79
2021/01/15 09:50:40;;;;;;;14.80;7.93;;;;;;;-2.14;75.44;99661.75;5125912;27;20039;-80
2021/01/15 09:53:07;;;;;;;15.13;7.07;;;;;;;-2.09;76.16;99660.59;5135155;27;20055;-79
2021/01/15 09:55:33;;;;;;;10.50;6.23;;;;;;;-1.93;75.30;99673.88;5127884;27;20404;-79
2021/01/15 09:57:59;;;;;;;12.00;6.73;;;;;;;-1.90;75.44;99671.00;5115609;28;20050;-79
2021/01/15 10:00:26;;;;;;;12.93;6.60;;;;;;;-2.03;75.25;99653.09;5113516;28;20047;-78
2021/01/15 10:02:53;;;;;;;15.63;7.27;;;;;;;-1.97;75.57;99635.91;5115516;28;20052;-78
2021/01/15 10:05:23;;;;;;;12.47;6.13;;;;;;;-1.81;74.24;99658.00;5115780;28;20055;-78
2021/01/15 10:07:49;;;;;;;11.20;5.73;;;;;;;-1.93;74.37;99629.41;5114844;28;20529;-79
2021/01/15 10:10:16;;;;;;;12.70;6.00;;;;;;;-1.80;74.34;99651.69;5115408;28;20054;-78
2021/01/15 10:12:46;;;;;;;7.97;5.13;;;;;;;-1.75;73.26;99651.41;5123531;27;20509;-78
2021/01/15 10:15:14;;;;;;;12.05;5.97;;;;;;;-1.63;73.39;99671.13;5135989;27;20093;-78
2021/01/15 10:17:44;;;;;;;13.67;6.83;;;;;;;-1.70;73.67;99657.31;5120933;27;20054;-78
2021/01/15 10:20:12;;;;;;;14.33;6.83;;;;;;;-1.65;72.84;99660.56;5115973;28;20047;-78
2021/01/15 10:22:39;;;;;;;9.83;6.13;;;;;;;-1.61;72.55;99667.41;5115695;28;20050;-78
2021/01/15 10:25:07;;;;;;;16.17;6.87;;;;;;;-1.52;72.44;99666.00;5094090;28;20055;-78
2021/01/15 10:27:35;;;;;;;11.47;5.70;;;;;;;-1.57;72.10;99667.22;5095543;28;20048;-78
2021/01/15 10:30:05;;;;;;;10.50;5.50;;;;;;;-1.39;71.94;99667.88;5113616;27;20628;-78
2021/01/15 10:32:32;;;;;;;13.83;5.67;;;;;;;-1.44;71.57;99647.69;5115428;28;20419;-79
2021/01/15 10:35:03;;;;;;;11.67;5.93;;;;;;;-1.22;70.49;99685.47;5114454;28;20058;-79
2021/01/15 10:37:31;;;;;;;8.43;5.33;;;;;;;-1.08;71.10;99689.00;5115007;28;20051;-78
2021/01/15 10:39:59;;;;;;;11.37;5.73;;;;;;;-1.20;70.59;99668.44;5115156;28;20044;-79
2021/01/15 10:42:27;;;;;;;7.97;5.33;;;;;;;-1.09;71.17;99687.28;5114884;28;20526;-77
2021/01/15 10:44:54;;;;;;;10.47;6.07;;;;;;;-0.95;71.12;99680.19;5114523;28;20427;-78
2021/01/15 10:47:20;;;;;;;9.57;6.10;;;;;;;-0.97;70.39;99653.59;5114865;28;20047;-79
2021/01/15 10:49:49;;;;;;;11.80;6.60;;;;;;;-1.03;69.98;99638.00;5115096;28;20472;-78
2021/01/15 10:52:15;;;;;;;12.37;6.47;;;;;;;-0.89;71.09;99653.09;5115102;28;20051;-79
2021/01/15 10:54:44;;;;;;;14.13;6.67;;;;;;;-1.00;70.46;99644.94;5114935;28;20780;-79
2021/01/15 10:57:11;;;;;;;13.80;5.53;;;;;;;-0.94;70.18;99674.75;5114996;28;20056;-79
2021/01/15 10:59:41;;;;;;;12.10;6.67;;;;;;;-0.83;70.13;99657.19;5115121;28;20139;-79
2021/01/15 11:02:08;;;;;;;10.63;5.63;;;;;;;-0.80;70.81;99665.88;5128955;27;20044;-79
2021/01/15 11:04:34;;;;;;;11.97;6.93;;;;;;;-0.63;69.25;99695.94;5135268;27;20059;-79
2021/01/15 11:07:05;;;;;;;11.73;5.67;;;;;;;-0.70;69.64;99686.63;5124018;27;20047;-79
2021/01/15 11:09:32;;;;;;;14.93;7.93;;;;;;;-0.90;69.04;99665.59;5114257;28;20503;-79
2021/01/15 11:11:59;;;;;;;12.33;6.33;;;;;;;-0.77;69.61;99696.84;5114466;28;20457;-79
2021/01/15 11:14:26;;;;;;;15.63;7.30;;;;;;;-0.72;70.01;99690.25;5114332;28;20048;-79
2021/01/15 11:16:53;;;;;;;11.80;6.47;;;;;;;-0.97;71.37;99658.09;5114356;28;20055;-78
2021/01/15 11:19:20;;;;;;;7.83;5.23;;;;;;;-0.90;72.44;99672.75;5114414;28;20138;-79
2021/01/15 11:21:50;;;;;;;21.77;9.30;;;;;;;-0.90;73.37;99667.44;5114747;28;20487;-79
2021/01/15 11:24:17;;;;;;;10.83;5.97;;;;;;;-0.75;73.51;99690.44;5114314;28;20488;-79
2021/01/15 11:26:43;;;;;;;14.50;6.33;;;;;;;-0.96;73.19;99676.69;5114242;28;20048;-79
2021/01/15 11:29:12;;;;;;;16.07;7.40;;;;;;;-0.79;73.15;99688.94;5114313;28;20047;-79
2021/01/15 11:31:40;;;;;;;6.43;4.00;;;;;;;-0.88;73.34;99675.34;5114152;28;20051;-79
2021/01/15 11:34:07;;;;;;;11.57;6.63;;;;;;;-0.84;72.90;99671.47;5114518;28;20130;-79
2021/01/15 11:36:33;;;;;;;8.90;4.97;;;;;;;-0.72;72.46;99686.72;5113020;28;20078;-79
2021/01/15 11:39:02;;;;;;;8.90;3.87;;;;;;;-0.85;73.36;99673.31;5114551;28;20056;-79
2021/01/15 11:41:30;;;;;;;13.63;7.43;;;;;;;-0.82;73.83;99672.25;5113321;27;20078;-79
2021/01/15 11:43:57;;;;;;;14.40;7.03;;;;;;;-0.74;73.62;99677.94;5122682;27;20471;-79